Flight Track Log - Related Links

Times and Time Zones

All times are in EDT time to prevent confusion due to time zone crossing. See the SWA3943 flight status page for this flight to view local times or setup timezone preferences in your user account.

Time Position Orientation Groundspeed Altitude Reporting Facility
EDT Latitude Longitude Course Direction KTS MPH feet Rate Location/Type
Mon 05:40:24 PM 28.4000 -81.3000 180° South 166 191 800  Level Orlando TRACON
Mon 05:40:48 PM 28.3833 -81.3000 180° South 169 194 1,400 2,357 Climbing Orlando TRACON
Mon 05:41:48 PM 28.3333 -81.3500 221° Southwest 227 261 4,100 2,582 Climbing Orlando TRACON
Mon 05:43:00 PM 28.4691 -81.3657 North  Level Estimated
Mon 05:43:26 PM 28.4147 -81.3961 North 250 288 8,200  Level Jacksonville Center
Mon 05:44:26 PM 28.4983 -81.4092 352° North 274 315 10,900 2,500 Climbing Jacksonville Center
Mon 05:45:26 PM 28.5922 -81.4267 351° North 312 359 13,200 2,275 Climbing Jacksonville Center
Mon 05:47:00 PM 28.7696 -81.4467 354° North  Level Estimated
Mon 05:48:26 PM 28.8936 -81.5006 354° North 364 419 20,000  Level Jacksonville Center
Mon 05:49:26 PM 29.0006 -81.5322 345° North 381 438 22,200 1,950 Climbing Jacksonville Center
Mon 05:50:26 PM 29.1094 -81.5617 347° North 386 444 23,900 1,550 Climbing Jacksonville Center
Mon 05:51:26 PM 29.2183 -81.5958 345° North 401 461 25,300 1,600 Climbing Jacksonville Center
Mon 05:52:26 PM 29.3314 -81.6325 344° North 407 468 27,100 1,750 Climbing Jacksonville Center
Mon 05:53:26 PM 29.4422 -81.6669 345° North 413 475 28,800 1,750 Climbing Jacksonville Center
Mon 05:54:26 PM 29.5511 -81.6989 346° North 413 475 30,600 1,367 Climbing Jacksonville Center
Mon 05:56:00 PM 29.7270 -81.7167 355° North  Level Estimated
Mon 05:56:26 PM 29.7708 -81.7536 355° North 403 464 32,900  Level Jacksonville Center
Mon 05:57:26 PM 29.8900 -81.7642 356° North 408 470 33,900 950 Climbing Jacksonville Center
Mon 05:58:26 PM 30.0047 -81.7747 355° North 413 475 34,800 550 Climbing Jacksonville Center
Mon 05:59:26 PM 30.1364 -81.7878 355° North 418 481 35,000 100 Climbing Jacksonville Center
Mon 06:00:26 PM 30.2578 -81.7983 356° North 429 494 35,000  Level Jacksonville Center
Mon 06:02:26 PM 30.4856 -81.8222 355° North 416 479 35,000  Level Jacksonville Center
Mon 06:04:26 PM 30.7236 -81.8486 355° North 426 490 35,000  Level Jacksonville Center
Mon 06:06:26 PM 30.9597 -81.8750 355° North 426 490 35,000  Level Jacksonville Center
Mon 06:08:26 PM 31.2000 -81.8992 355° North 426 490 35,000  Level Jacksonville Center
Mon 06:09:26 PM 31.3214 -81.9125 355° North 426 490 35,000  Level Jacksonville Center
Mon 06:10:26 PM 31.4425 -81.9208 357° North 431 496 35,000  Level Jacksonville Center
Mon 06:12:00 PM 31.6184 -81.9389 348° North  Level Estimated
Mon 06:12:26 PM 31.6869 -81.9503 348° North 444 511 35,000  Level Jacksonville Center
Mon 06:14:46 PM 31.9736 -81.9797 355° North 445 512 35,000  Level Atlanta Center
Mon 06:15:46 PM 32.0969 -81.9917 355° North 445 512 35,000  Level Atlanta Center
Mon 06:16:46 PM 32.2203 -82.0061 354° North 445 512 35,000  Level Atlanta Center
Mon 06:18:00 PM 32.3585 -82.0120 358° North  Level FlightAware Approximate
Mon 06:18:46 PM 32.4522 -82.0278 358° North 446 513 35,000  Level Atlanta Center
Mon 06:19:46 PM 32.5778 -82.0422 354° North 446 513 35,000  Level Atlanta Center
Mon 06:21:00 PM 32.7156 -82.0553 355° North  Level FlightAware Approximate
Mon 06:21:46 PM 32.8308 -82.0686 355° North 446 513 35,000  Level Atlanta Center
Mon 06:22:46 PM 32.9564 -82.0831 354° North 446 513 35,000  Level Atlanta Center
Mon 06:23:46 PM 33.0839 -82.0928 356° North 446 513 35,000  Level Atlanta Center
Mon 06:25:46 PM 33.3494 -82.1239 354° North 452 520 35,000  Level Atlanta Center
Mon 06:27:00 PM 33.4875 -82.1341 356° North  Level FlightAware Approximate
Mon 06:27:46 PM 33.6022 -82.1508 356° North 452 520 35,000  Level Atlanta Center
Mon 06:28:46 PM 33.7297 -82.1556 358° North 452 520 35,000  Level Atlanta Center
Mon 06:29:46 PM 33.8567 -82.1378 North 452 520 35,000  Level Atlanta Center
Mon 06:31:00 PM 33.9928 -82.1060 North  Level FlightAware Approximate
Mon 06:32:46 PM 34.2375 -82.0689 North 463 533 35,000  Level Atlanta Center
Mon 06:34:00 PM 34.3750 -82.0871 354° North  Level Estimated
Mon 06:34:46 PM 34.4811 -82.0253 354° North 463 533 35,000  Level Atlanta Center
Mon 06:35:46 PM 34.6081 -82.0047 North 463 533 35,000  Level Atlanta Center
Mon 06:37:00 PM 34.7444 -81.9766 10° North  Level FlightAware Approximate
Mon 06:37:46 PM 34.8639 -81.9603 10° North 463 533 35,000  Level Atlanta Center
Mon 06:38:00 PM 34.7690 -81.9652 North  Level FlightAware Approximate
Mon 06:38:46 PM 35.0033 -81.9367 North 463 533 35,000  Level Atlanta Center
Mon 06:39:46 PM 35.1325 -81.9283 North 463 533 35,000  Level Atlanta Center
Mon 06:40:46 PM 35.2597 -81.9200 North 455 524 35,000  Level Atlanta Center
Mon 06:42:00 PM 35.3973 -81.9025 North  Level FlightAware Approximate
Mon 06:42:46 PM 35.5017 -81.9086 North 460 529 35,000  Level Atlanta Center
Mon 06:43:46 PM 35.6308 -81.9053 North 460 529 35,000  Level Atlanta Center
Mon 06:44:46 PM 35.7600 -81.8994 North 454 522 35,000  Level Atlanta Center
Mon 06:45:46 PM 35.9017 -81.8878 North 461 531 35,000  Level Atlanta Center
Mon 06:46:46 PM 36.0311 -81.8819 North 455 524 35,000  Level Atlanta Center
Mon 06:47:46 PM 36.1603 -81.8758 North 463 533 35,000  Level Atlanta Center
Mon 06:48:46 PM 36.2853 -81.8700 North 457 526 35,000  Level Atlanta Center
Mon 06:49:46 PM 36.4122 -81.8639 North 452 520 35,000  Level Atlanta Center
Mon 06:50:46 PM 36.5331 -81.8581 North 451 519 35,000  Level Atlanta Center
Mon 06:52:00 PM 36.6729 -81.8469 North  Level FlightAware Approximate
Mon 06:53:51 PM 36.9161 -81.8408 North 458 527 35,000  Level Indianapolis Center
Mon 06:54:53 PM 37.0389 -81.8339 North 446 513 35,000 -97 Level Indianapolis Center
Mon 06:55:55 PM 37.1647 -81.8289 North 451 519 34,800 -484 Descending Indianapolis Center
Mon 06:56:57 PM 37.3111 -81.8222 North 451 519 34,000 -516 Descending Indianapolis Center
Mon 06:58:00 PM 37.4295 -81.8126 North  Level FlightAware Approximate
Mon 06:59:00 PM 37.4571 -81.8040 North  Level FlightAware Approximate
Mon 06:59:01 PM 37.5603 -81.8094 North 445 512 33,200  Level Indianapolis Center
Mon 07:00:03 PM 37.6822 -81.8036 North 441 507 32,300 -710 Descending Indianapolis Center
Mon 07:02:07 PM 37.9281 -81.7931 North 422 486 31,000 -419 Descending Indianapolis Center
Mon 07:03:09 PM 38.0450 -81.7858 North 419 482 31,000 -758 Level Indianapolis Center
Mon 07:05:00 PM 38.2437 -81.8306 343° North  Level FlightAware Approximate
Mon 07:08:19 PM 38.6567 -81.9792 342° North 421 484 26,300  Level Indianapolis Center
Mon 07:10:00 PM 38.8248 -82.0914 345° North  Level Estimated
Mon 07:11:25 PM 39.0250 -82.1342 345° North 458 527 22,100  Level Indianapolis Center
Mon 07:12:00 PM 38.9995 -82.1165 345° North  Level FlightAware Approximate
Mon 07:12:27 PM 39.1419 -82.1806 343° North 440 506 20,500  Level Indianapolis Center
Mon 07:13:00 PM 39.1067 -82.1609 342° North  Level FlightAware Approximate
Mon 07:13:29 PM 39.2569 -82.2264 343° North 432 497 18,800  Level Indianapolis Center
Mon 07:14:06 PM 39.3436 -82.2617 343° North 419 482 16,800 -2,634 Descending Indianapolis Center
Mon 07:15:32 PM 39.4828 -82.3167 343° North 402 463 13,400 -1,887 Descending Indianapolis Center
Mon 07:17:20 PM 39.6697 -82.4014 341° North 365 420 10,700 -1,500 Descending Indianapolis Center
Mon 07:17:36 PM 39.6894 -82.4217 322° Northwest 350 403 10,300 -689 Descending Indianapolis Center
Mon 07:18:21 PM 39.7422 -82.4767 321° Northwest 328 377 10,000 -387 Descending Indianapolis Center
Mon 07:18:38 PM 39.7633 -82.4981 322° Northwest 335 386 9,900 -98 Descending Indianapolis Center
Mon 07:19:22 PM 39.8189 -82.5528 323° Northwest 344 396 9,900  Level Indianapolis Center
Mon 07:19:40 PM 39.8394 -82.5747 321° Northwest 342 394 9,900 -1,033 Level Indianapolis Center
Mon 07:21:24 PM 39.9008 -82.7411 296° West 300 345 7,800 -1,220 Descending Indianapolis Center
Mon 07:21:43 PM 39.9039 -82.7647 280° West 300 345 7,400 -1,778 Descending Indianapolis Center
Mon 07:22:18 PM 39.9050 -82.8367 271° West 282 325 6,200 -1,452 Descending Indianapolis Center
Mon 07:22:45 PM 39.9078 -82.8686 276° West 287 330 5,900 -282 Descending Indianapolis Center
Mon 07:23:43 PM 39.9125 -82.9706 273° West 251 289 5,800 -425 Descending Indianapolis Center
Mon 07:24:38 PM 39.9356 -83.0331 296° West 220 253 5,100 -982 Descending Indianapolis Center
Mon 07:25:33 PM 39.9836 -83.0358 357° North 190 219 4,000 -1,233 Descending Indianapolis Center
Mon 07:25:51 PM 39.9992 -83.0297 17° North 201 231 3,600 -1,367 Descending Indianapolis Center
Mon 07:26:52 PM 39.9994 -82.9789 90° East 156 180 2,200 -1,220 Descending Indianapolis Center
Mon 07:27:54 PM 39.9969 -82.9300 94° East 140 161 1,100 -581 Descending Indianapolis Center
Mon 07:28:56 PM 39.9942 -82.8839 94° East 139 160 1,000 -97 Descending Indianapolis Center

Login

Don't have an account? Register now (free) for customized features, flight alerts, and more!